Airfield :







YOU CAN JOIN US ON...

 
LOGIN :

Register | Disclaimer

   EN    FR    IT 

 









Legend :    VFR   Marginal VFR   IFR   Intensive IFR   Very Intensive IFR
Visi :
Ceiling :
>= 8 km
>= 3000ft
5 to 8 km
1000 to 3000 ft
1500m to 5 km
500 to 1000 ft
800 to 1500m
200 to 500 ft
< 800m
< 200 ft
Symbols :   Thunderstorms  Fog  Heavy snow  Heavy precipitations  Wind > 20 kt






- Airport Elevation : 357 ft
- IATA code : YSJ


CYSJ - Saint John

CURRENT METAR :
  • 080737Z 24009KT 6SM -SN BKN010 OVC030 00/M02 A2992 RMK SC5SC3 SLP141

EXPIRED METARs :
  • 080700Z 23010G15KT 15SM BKN010 OVC032 01/M02 A2993 RMK SC6SC2 SLP142
  • 080600Z 18008KT 15SM SCT021 OVC100 M02/M05 A2998 RMK SC3AC5 SLP159
  • 080500Z 16007KT 15SM OVC140 M03/M07 A3001 RMK AC8 PRESFR SLP172

TAF TAF CYSJ
Valid from the 08 at 06:00 until the 08 at 18:00 UTC


080540Z 0806/0818 16010KT P6SM OVC140
FM080700 24008G18KT 6SM -SN SCT012 OVC025
TEMPO 0807/0812 1 1/2SM -SN OVC012
PROB30 0807/0812 1 1/2SM -SN -FZDZ BR OVC005
FM081200 27010G20KT P6SM BKN015
TEMPO 0812/0817 BKN025
FM081700 30012G22KT P6SM BKN030 RMK NXT FCST BY 081200Z
CZQM FIR / North America



MET'MAP, your aeronautical weather chart ! - Copyright ORBIFLY December 2007 - Disclaimer

ORBIFLY MET'MAP TEAM :

Programming & Development : Alexandra Zaïnal
Original concept : Baudouin d'Aumeries
Technical & hardware support : Manuel Goepfert
Assistance : Marc-Olivier Méhu




SOURCES & CREDITS :

   NOAA